sensor_id;sensor_type;location;lat;lon;timestamp;P1;durP1;ratioP1;P2;durP2;ratioP2
64235;SDS011;50564;47.402;9.740;2022-08-14T00:04:33;2.20;;;1.90;;
64235;SDS011;50564;47.402;9.740;2022-08-14T00:09:35;4.07;;;1.55;;
64235;SDS011;50564;47.402;9.740;2022-08-14T00:14:36;2.17;;;1.80;;
64235;SDS011;50564;47.402;9.740;2022-08-14T00:19:36;2.35;;;1.77;;
64235;SDS011;50564;47.402;9.740;2022-08-14T00:24:37;4.50;;;1.85;;
64235;SDS011;50564;47.402;9.740;2022-08-14T00:29:38;2.53;;;1.67;;
64235;SDS011;50564;47.402;9.740;2022-08-14T00:34:38;2.08;;;1.85;;
64235;SDS011;50564;47.402;9.740;2022-08-14T00:39:39;2.95;;;1.70;;
64235;SDS011;50564;47.402;9.740;2022-08-14T00:44:39;4.05;;;1.98;;
64235;SDS011;50564;47.402;9.740;2022-08-14T00:49:40;2.65;;;1.65;;
64235;SDS011;50564;47.402;9.740;2022-08-14T00:54:42;3.65;;;1.60;;
64235;SDS011;50564;47.402;9.740;2022-08-14T00:59:44;2.75;;;1.85;;
64235;SDS011;50564;47.402;9.740;2022-08-14T01:04:45;1.73;;;1.63;;
64235;SDS011;50564;47.402;9.740;2022-08-14T01:09:50;2.20;;;1.60;;
64235;SDS011;50564;47.402;9.740;2022-08-14T01:15:00;4.53;;;1.98;;
64235;SDS011;50564;47.402;9.740;2022-08-14T01:20:01;2.10;;;1.77;;
64235;SDS011;50564;47.402;9.740;2022-08-14T01:25:21;2.10;;;1.80;;
64235;SDS011;50564;47.402;9.740;2022-08-14T01:30:21;3.58;;;2.60;;
64235;SDS011;50564;47.402;9.740;2022-08-14T01:35:23;3.85;;;2.75;;
64235;SDS011;50564;47.402;9.740;2022-08-14T01:40:27;5.57;;;2.88;;
64235;SDS011;50564;47.402;9.740;2022-08-14T01:45:28;3.97;;;2.30;;
64235;SDS011;50564;47.402;9.740;2022-08-14T01:50:29;3.97;;;2.97;;
64235;SDS011;50564;47.402;9.740;2022-08-14T01:55:30;4.38;;;2.45;;
64235;SDS011;50564;47.402;9.740;2022-08-14T02:00:30;2.45;;;2.20;;
64235;SDS011;50564;47.402;9.740;2022-08-14T02:05:31;2.65;;;2.22;;
64235;SDS011;50564;47.402;9.740;2022-08-14T02:10:32;2.50;;;2.03;;
64235;SDS011;50564;47.402;9.740;2022-08-14T02:15:34;6.85;;;2.03;;
64235;SDS011;50564;47.402;9.740;2022-08-14T02:20:35;2.60;;;2.10;;
64235;SDS011;50564;47.402;9.740;2022-08-14T02:25:36;2.25;;;2.03;;
64235;SDS011;50564;47.402;9.740;2022-08-14T02:30:37;2.75;;;1.90;;
64235;SDS011;50564;47.402;9.740;2022-08-14T02:35:40;2.75;;;1.83;;
64235;SDS011;50564;47.402;9.740;2022-08-14T02:40:42;2.75;;;1.60;;
64235;SDS011;50564;47.402;9.740;2022-08-14T02:45:43;4.05;;;2.10;;
64235;SDS011;50564;47.402;9.740;2022-08-14T02:50:44;2.35;;;1.85;;
64235;SDS011;50564;47.402;9.740;2022-08-14T02:55:45;3.85;;;1.90;;
64235;SDS011;50564;47.402;9.740;2022-08-14T03:00:46;3.95;;;1.63;;
64235;SDS011;50564;47.402;9.740;2022-08-14T03:05:49;5.82;;;2.03;;
64235;SDS011;50564;47.402;9.740;2022-08-14T03:10:51;2.33;;;1.92;;
64235;SDS011;50564;47.402;9.740;2022-08-14T03:15:52;3.10;;;2.35;;
64235;SDS011;50564;47.402;9.740;2022-08-14T03:20:53;4.15;;;2.45;;
64235;SDS011;50564;47.402;9.740;2022-08-14T03:25:54;3.55;;;2.25;;
64235;SDS011;50564;47.402;9.740;2022-08-14T03:30:55;2.10;;;1.90;;
64235;SDS011;50564;47.402;9.740;2022-08-14T03:35:56;2.70;;;1.70;;
64235;SDS011;50564;47.402;9.740;2022-08-14T03:40:58;3.47;;;2.08;;
64235;SDS011;50564;47.402;9.740;2022-08-14T03:45:59;2.35;;;2.13;;
64235;SDS011;50564;47.402;9.740;2022-08-14T03:50:59;2.50;;;2.10;;
64235;SDS011;50564;47.402;9.740;2022-08-14T03:56:00;2.35;;;1.90;;
64235;SDS011;50564;47.402;9.740;2022-08-14T04:01:01;2.28;;;1.85;;
64235;SDS011;50564;47.402;9.740;2022-08-14T04:06:02;3.38;;;1.90;;
64235;SDS011;50564;47.402;9.740;2022-08-14T04:11:03;2.75;;;1.80;;
64235;SDS011;50564;47.402;9.740;2022-08-14T04:16:06;3.92;;;2.13;;
64235;SDS011;50564;47.402;9.740;2022-08-14T04:21:15;2.33;;;1.88;;
64235;SDS011;50564;47.402;9.740;2022-08-14T04:26:16;3.95;;;1.90;;
64235;SDS011;50564;47.402;9.740;2022-08-14T04:31:21;2.90;;;2.20;;
64235;SDS011;50564;47.402;9.740;2022-08-14T04:36:22;4.68;;;1.90;;
64235;SDS011;50564;47.402;9.740;2022-08-14T04:41:23;2.20;;;1.80;;
64235;SDS011;50564;47.402;9.740;2022-08-14T04:46:43;2.15;;;1.83;;
64235;SDS011;50564;47.402;9.740;2022-08-14T04:52:04;4.50;;;2.50;;
64235;SDS011;50564;47.402;9.740;2022-08-14T04:57:04;4.07;;;1.65;;
64235;SDS011;50564;47.402;9.740;2022-08-14T05:02:05;2.33;;;1.90;;
64235;SDS011;50564;47.402;9.740;2022-08-14T05:07:06;2.78;;;2.20;;
64235;SDS011;50564;47.402;9.740;2022-08-14T05:12:07;3.03;;;2.65;;
64235;SDS011;50564;47.402;9.740;2022-08-14T05:17:08;3.15;;;2.80;;
64235;SDS011;50564;47.402;9.740;2022-08-14T05:22:09;4.78;;;3.05;;
64235;SDS011;50564;47.402;9.740;2022-08-14T05:27:10;3.65;;;2.70;;
64235;SDS011;50564;47.402;9.740;2022-08-14T05:32:11;4.95;;;2.72;;
64235;SDS011;50564;47.402;9.740;2022-08-14T05:37:12;8.52;;;3.28;;
64235;SDS011;50564;47.402;9.740;2022-08-14T05:42:14;4.15;;;2.65;;
64235;SDS011;50564;47.402;9.740;2022-08-14T05:47:16;5.43;;;2.90;;
64235;SDS011;50564;47.402;9.740;2022-08-14T05:52:16;5.15;;;3.30;;
64235;SDS011;50564;47.402;9.740;2022-08-14T05:57:17;4.40;;;3.30;;
64235;SDS011;50564;47.402;9.740;2022-08-14T06:02:18;4.45;;;3.28;;
64235;SDS011;50564;47.402;9.740;2022-08-14T06:07:18;4.88;;;3.50;;
64235;SDS011;50564;47.402;9.740;2022-08-14T06:12:19;5.88;;;3.53;;
64235;SDS011;50564;47.402;9.740;2022-08-14T06:17:20;4.28;;;3.05;;
64235;SDS011;50564;47.402;9.740;2022-08-14T06:22:20;4.70;;;2.80;;
64235;SDS011;50564;47.402;9.740;2022-08-14T06:27:21;2.58;;;2.35;;
64235;SDS011;50564;47.402;9.740;2022-08-14T06:32:22;4.35;;;2.42;;
64235;SDS011;50564;47.402;9.740;2022-08-14T06:37:22;3.72;;;2.45;;
64235;SDS011;50564;47.402;9.740;2022-08-14T06:42:23;2.15;;;1.88;;
64235;SDS011;50564;47.402;9.740;2022-08-14T06:47:23;4.80;;;2.40;;
64235;SDS011;50564;47.402;9.740;2022-08-14T06:52:24;3.17;;;2.10;;
64235;SDS011;50564;47.402;9.740;2022-08-14T06:57:25;2.90;;;2.15;;
64235;SDS011;50564;47.402;9.740;2022-08-14T07:02:35;2.47;;;2.10;;
64235;SDS011;50564;47.402;9.740;2022-08-14T07:07:54;5.03;;;2.53;;
64235;SDS011;50564;47.402;9.740;2022-08-14T07:12:59;2.97;;;2.33;;
64235;SDS011;50564;47.402;9.740;2022-08-14T07:18:00;4.63;;;2.08;;
64235;SDS011;50564;47.402;9.740;2022-08-14T07:23:02;4.07;;;1.88;;
64235;SDS011;50564;47.402;9.740;2022-08-14T07:28:14;3.03;;;1.63;;
64235;SDS011;50564;47.402;9.740;2022-08-14T07:33:16;2.63;;;1.80;;
64235;SDS011;50564;47.402;9.740;2022-08-14T07:38:18;3.78;;;1.90;;
64235;SDS011;50564;47.402;9.740;2022-08-14T07:43:20;3.95;;;2.10;;
64235;SDS011;50564;47.402;9.740;2022-08-14T07:48:21;3.63;;;1.85;;
64235;SDS011;50564;47.402;9.740;2022-08-14T07:53:22;4.38;;;1.98;;
64235;SDS011;50564;47.402;9.740;2022-08-14T07:58:23;3.40;;;1.85;;
64235;SDS011;50564;47.402;9.740;2022-08-14T08:03:24;2.75;;;1.83;;
64235;SDS011;50564;47.402;9.740;2022-08-14T08:08:28;4.40;;;2.15;;
64235;SDS011;50564;47.402;9.740;2022-08-14T08:13:29;2.80;;;2.13;;
64235;SDS011;50564;47.402;9.740;2022-08-14T08:18:33;4.40;;;2.30;;
64235;SDS011;50564;47.402;9.740;2022-08-14T08:23:34;3.80;;;2.40;;
64235;SDS011;50564;47.402;9.740;2022-08-14T08:28:34;4.15;;;1.90;;
64235;SDS011;50564;47.402;9.740;2022-08-14T08:33:35;3.72;;;2.00;;
64235;SDS011;50564;47.402;9.740;2022-08-14T08:38:37;3.13;;;1.95;;
64235;SDS011;50564;47.402;9.740;2022-08-14T08:43:38;4.18;;;1.95;;
64235;SDS011;50564;47.402;9.740;2022-08-14T08:48:47;2.47;;;1.80;;
64235;SDS011;50564;47.402;9.740;2022-08-14T08:54:00;1.92;;;1.73;;
64235;SDS011;50564;47.402;9.740;2022-08-14T09:04:28;3.20;;;1.85;;
64235;SDS011;50564;47.402;9.740;2022-08-14T09:09:49;2.00;;;1.85;;
64235;SDS011;50564;47.402;9.740;2022-08-14T09:14:53;3.53;;;2.00;;
64235;SDS011;50564;47.402;9.740;2022-08-14T09:19:54;3.30;;;2.05;;
64235;SDS011;50564;47.402;9.740;2022-08-14T09:24:56;3.38;;;1.80;;
64235;SDS011;50564;47.402;9.740;2022-08-14T09:29:56;3.08;;;1.50;;
64235;SDS011;50564;47.402;9.740;2022-08-14T09:46:10;2.08;;;1.80;;
64235;SDS011;50564;47.402;9.740;2022-08-14T09:51:20;2.53;;;1.70;;
64235;SDS011;50564;47.402;9.740;2022-08-14T09:56:22;2.85;;;2.20;;
64235;SDS011;50564;47.402;9.740;2022-08-14T10:01:33;4.15;;;1.85;;
64235;SDS011;50564;47.402;9.740;2022-08-14T10:06:41;3.90;;;1.90;;
64235;SDS011;50564;47.402;9.740;2022-08-14T10:11:57;3.28;;;2.20;;
64235;SDS011;50564;47.402;9.740;2022-08-14T10:16:58;6.22;;;1.77;;
64235;SDS011;50564;47.402;9.740;2022-08-14T10:27:20;5.28;;;2.28;;
64235;SDS011;50564;47.402;9.740;2022-08-14T10:32:25;5.00;;;2.38;;
64235;SDS011;50564;47.402;9.740;2022-08-14T10:37:26;5.10;;;2.35;;
64235;SDS011;50564;47.402;9.740;2022-08-14T10:42:39;2.50;;;2.30;;
64235;SDS011;50564;47.402;9.740;2022-08-14T10:47:40;4.10;;;2.30;;
64235;SDS011;50564;47.402;9.740;2022-08-14T10:52:40;2.70;;;2.30;;
64235;SDS011;50564;47.402;9.740;2022-08-14T10:57:46;3.22;;;2.90;;
64235;SDS011;50564;47.402;9.740;2022-08-14T11:03:03;3.30;;;2.63;;
64235;SDS011;50564;47.402;9.740;2022-08-14T11:08:12;4.30;;;2.80;;
64235;SDS011;50564;47.402;9.740;2022-08-14T11:13:24;5.03;;;2.50;;
64235;SDS011;50564;47.402;9.740;2022-08-14T11:18:26;5.07;;;2.70;;
64235;SDS011;50564;47.402;9.740;2022-08-14T11:23:29;2.75;;;2.47;;
64235;SDS011;50564;47.402;9.740;2022-08-14T11:28:34;4.68;;;2.55;;
64235;SDS011;50564;47.402;9.740;2022-08-14T11:33:38;4.97;;;2.70;;
64235;SDS011;50564;47.402;9.740;2022-08-14T11:38:41;2.53;;;2.10;;
64235;SDS011;50564;47.402;9.740;2022-08-14T11:43:45;2.60;;;2.30;;
64235;SDS011;50564;47.402;9.740;2022-08-14T11:48:48;4.72;;;2.67;;
64235;SDS011;50564;47.402;9.740;2022-08-14T11:53:52;4.95;;;2.72;;
64235;SDS011;50564;47.402;9.740;2022-08-14T11:58:56;2.92;;;2.33;;
64235;SDS011;50564;47.402;9.740;2022-08-14T12:09:30;4.15;;;2.70;;
64235;SDS011;50564;47.402;9.740;2022-08-14T12:14:33;2.60;;;2.20;;
64235;SDS011;50564;47.402;9.740;2022-08-14T12:19:44;2.70;;;2.45;;
64235;SDS011;50564;47.402;9.740;2022-08-14T12:24:49;2.37;;;2.10;;
64235;SDS011;50564;47.402;9.740;2022-08-14T12:29:50;3.40;;;1.75;;
64235;SDS011;50564;47.402;9.740;2022-08-14T12:34:52;2.47;;;1.90;;
64235;SDS011;50564;47.402;9.740;2022-08-14T12:39:54;3.42;;;1.75;;
64235;SDS011;50564;47.402;9.740;2022-08-14T12:44:55;4.18;;;1.40;;
64235;SDS011;50564;47.402;9.740;2022-08-14T12:49:59;1.85;;;1.67;;
64235;SDS011;50564;47.402;9.740;2022-08-14T12:55:00;2.47;;;1.50;;
64235;SDS011;50564;47.402;9.740;2022-08-14T13:00:08;4.63;;;1.50;;
64235;SDS011;50564;47.402;9.740;2022-08-14T13:05:19;1.77;;;1.60;;
64235;SDS011;50564;47.402;9.740;2022-08-14T13:10:26;2.03;;;1.50;;
64235;SDS011;50564;47.402;9.740;2022-08-14T13:15:27;2.53;;;1.75;;
64235;SDS011;50564;47.402;9.740;2022-08-14T13:20:27;1.92;;;1.73;;
64235;SDS011;50564;47.402;9.740;2022-08-14T13:25:29;1.40;;;1.30;;
64235;SDS011;50564;47.402;9.740;2022-08-14T13:30:30;1.98;;;1.65;;
64235;SDS011;50564;47.402;9.740;2022-08-14T13:35:31;2.63;;;1.77;;
64235;SDS011;50564;47.402;9.740;2022-08-14T13:40:32;2.33;;;1.50;;
64235;SDS011;50564;47.402;9.740;2022-08-14T13:45:33;3.40;;;1.80;;
64235;SDS011;50564;47.402;9.740;2022-08-14T13:50:34;2.72;;;1.70;;
64235;SDS011;50564;47.402;9.740;2022-08-14T13:55:35;1.70;;;1.60;;
64235;SDS011;50564;47.402;9.740;2022-08-14T14:00:36;1.75;;;1.65;;
64235;SDS011;50564;47.402;9.740;2022-08-14T14:05:38;2.08;;;1.80;;
64235;SDS011;50564;47.402;9.740;2022-08-14T14:10:40;4.82;;;2.05;;
64235;SDS011;50564;47.402;9.740;2022-08-14T14:15:40;3.47;;;1.67;;
64235;SDS011;50564;47.402;9.740;2022-08-14T14:20:42;1.50;;;1.40;;
64235;SDS011;50564;47.402;9.740;2022-08-14T14:25:44;1.98;;;1.75;;
64235;SDS011;50564;47.402;9.740;2022-08-14T14:30:45;3.05;;;1.70;;
64235;SDS011;50564;47.402;9.740;2022-08-14T14:35:46;2.30;;;1.85;;
64235;SDS011;50564;47.402;9.740;2022-08-14T14:40:48;2.72;;;1.90;;
64235;SDS011;50564;47.402;9.740;2022-08-14T14:45:49;2.42;;;1.80;;
64235;SDS011;50564;47.402;9.740;2022-08-14T14:50:50;4.72;;;1.98;;
64235;SDS011;50564;47.402;9.740;2022-08-14T14:55:52;3.17;;;1.77;;
64235;SDS011;50564;47.402;9.740;2022-08-14T15:00:53;3.58;;;1.90;;
64235;SDS011;50564;47.402;9.740;2022-08-14T15:05:55;4.93;;;2.10;;
64235;SDS011;50564;47.402;9.740;2022-08-14T15:10:56;3.25;;;1.90;;
64235;SDS011;50564;47.402;9.740;2022-08-14T15:15:59;3.65;;;2.35;;
64235;SDS011;50564;47.402;9.740;2022-08-14T15:21:00;3.15;;;2.67;;
64235;SDS011;50564;47.402;9.740;2022-08-14T15:26:02;2.92;;;2.60;;
64235;SDS011;50564;47.402;9.740;2022-08-14T15:31:04;3.70;;;2.63;;
64235;SDS011;50564;47.402;9.740;2022-08-14T15:36:05;5.35;;;2.75;;
64235;SDS011;50564;47.402;9.740;2022-08-14T15:41:06;4.40;;;2.80;;
64235;SDS011;50564;47.402;9.740;2022-08-14T15:46:07;3.40;;;2.58;;
64235;SDS011;50564;47.402;9.740;2022-08-14T15:51:08;5.40;;;3.58;;
64235;SDS011;50564;47.402;9.740;2022-08-14T15:56:08;4.32;;;2.78;;
64235;SDS011;50564;47.402;9.740;2022-08-14T16:01:09;5.03;;;2.90;;
64235;SDS011;50564;47.402;9.740;2022-08-14T16:06:23;4.40;;;3.17;;
64235;SDS011;50564;47.402;9.740;2022-08-14T16:11:26;6.30;;;3.22;;
64235;SDS011;50564;47.402;9.740;2022-08-14T16:16:27;5.85;;;3.75;;
64235;SDS011;50564;47.402;9.740;2022-08-14T16:21:28;5.55;;;3.40;;
64235;SDS011;50564;47.402;9.740;2022-08-14T16:26:29;4.53;;;3.10;;
64235;SDS011;50564;47.402;9.740;2022-08-14T16:31:30;4.68;;;3.53;;
64235;SDS011;50564;47.402;9.740;2022-08-14T16:36:31;5.47;;;3.40;;
64235;SDS011;50564;47.402;9.740;2022-08-14T16:41:33;3.60;;;3.10;;
64235;SDS011;50564;47.402;9.740;2022-08-14T16:46:35;3.85;;;3.47;;
64235;SDS011;50564;47.402;9.740;2022-08-14T16:51:39;4.82;;;3.38;;
64235;SDS011;50564;47.402;9.740;2022-08-14T16:56:42;3.85;;;3.45;;
64235;SDS011;50564;47.402;9.740;2022-08-14T17:01:46;5.28;;;3.55;;
64235;SDS011;50564;47.402;9.740;2022-08-14T17:06:58;5.80;;;3.35;;
64235;SDS011;50564;47.402;9.740;2022-08-14T17:12:02;5.80;;;3.50;;
64235;SDS011;50564;47.402;9.740;2022-08-14T17:17:03;6.38;;;3.60;;
64235;SDS011;50564;47.402;9.740;2022-08-14T17:22:04;6.35;;;3.20;;
64235;SDS011;50564;47.402;9.740;2022-08-14T17:27:07;10.23;;;3.67;;
64235;SDS011;50564;47.402;9.740;2022-08-14T17:47:49;4.72;;;3.72;;
64235;SDS011;50564;47.402;9.740;2022-08-14T17:52:49;5.40;;;3.70;;
64235;SDS011;50564;47.402;9.740;2022-08-14T17:57:50;5.32;;;3.60;;
64235;SDS011;50564;47.402;9.740;2022-08-14T18:02:53;4.65;;;3.28;;
64235;SDS011;50564;47.402;9.740;2022-08-14T18:07:56;5.65;;;3.40;;
64235;SDS011;50564;47.402;9.740;2022-08-14T18:12:57;5.22;;;3.00;;
64235;SDS011;50564;47.402;9.740;2022-08-14T18:17:58;4.43;;;3.00;;
64235;SDS011;50564;47.402;9.740;2022-08-14T18:23:01;6.72;;;3.10;;
64235;SDS011;50564;47.402;9.740;2022-08-14T18:28:07;6.13;;;3.65;;
64235;SDS011;50564;47.402;9.740;2022-08-14T18:33:14;5.78;;;3.70;;
64235;SDS011;50564;47.402;9.740;2022-08-14T18:38:20;4.40;;;3.40;;
64235;SDS011;50564;47.402;9.740;2022-08-14T18:43:39;4.03;;;3.05;;
64235;SDS011;50564;47.402;9.740;2022-08-14T18:48:41;6.90;;;3.80;;
64235;SDS011;50564;47.402;9.740;2022-08-14T18:58:52;5.47;;;4.57;;
64235;SDS011;50564;47.402;9.740;2022-08-14T19:03:55;5.60;;;4.05;;
64235;SDS011;50564;47.402;9.740;2022-08-14T19:08:57;8.38;;;4.40;;
64235;SDS011;50564;47.402;9.740;2022-08-14T19:13:58;5.80;;;4.70;;
64235;SDS011;50564;47.402;9.740;2022-08-14T19:19:03;8.07;;;4.35;;
64235;SDS011;50564;47.402;9.740;2022-08-14T19:24:15;4.70;;;3.72;;
64235;SDS011;50564;47.402;9.740;2022-08-14T19:29:28;7.35;;;4.32;;
64235;SDS011;50564;47.402;9.740;2022-08-14T19:44:52;6.10;;;3.97;;
64235;SDS011;50564;47.402;9.740;2022-08-14T19:49:54;4.75;;;3.72;;
64235;SDS011;50564;47.402;9.740;2022-08-14T19:54:54;5.05;;;3.60;;
64235;SDS011;50564;47.402;9.740;2022-08-14T20:00:05;7.20;;;4.00;;
64235;SDS011;50564;47.402;9.740;2022-08-14T20:05:15;4.88;;;4.07;;
64235;SDS011;50564;47.402;9.740;2022-08-14T20:20:26;7.00;;;4.43;;
64235;SDS011;50564;47.402;9.740;2022-08-14T20:25:26;6.93;;;3.85;;
64235;SDS011;50564;47.402;9.740;2022-08-14T20:30:27;6.47;;;3.97;;
64235;SDS011;50564;47.402;9.740;2022-08-14T20:35:32;7.32;;;3.65;;
64235;SDS011;50564;47.402;9.740;2022-08-14T20:40:43;7.28;;;4.20;;
64235;SDS011;50564;47.402;9.740;2022-08-14T20:45:45;5.10;;;3.40;;
64235;SDS011;50564;47.402;9.740;2022-08-14T20:50:47;5.40;;;3.72;;
64235;SDS011;50564;47.402;9.740;2022-08-14T20:55:48;5.35;;;3.53;;
64235;SDS011;50564;47.402;9.740;2022-08-14T21:06:05;7.75;;;4.35;;
64235;SDS011;50564;47.402;9.740;2022-08-14T21:11:07;5.57;;;4.10;;
64235;SDS011;50564;47.402;9.740;2022-08-14T21:16:14;9.37;;;4.43;;
64235;SDS011;50564;47.402;9.740;2022-08-14T21:21:18;6.47;;;4.63;;
64235;SDS011;50564;47.402;9.740;2022-08-14T21:26:21;6.25;;;4.32;;
64235;SDS011;50564;47.402;9.740;2022-08-14T21:31:23;5.97;;;4.60;;
64235;SDS011;50564;47.402;9.740;2022-08-14T21:36:23;5.68;;;4.22;;
64235;SDS011;50564;47.402;9.740;2022-08-14T21:41:24;7.20;;;4.28;;
64235;SDS011;50564;47.402;9.740;2022-08-14T21:46:26;7.93;;;4.32;;
64235;SDS011;50564;47.402;9.740;2022-08-14T21:51:27;7.50;;;4.53;;
64235;SDS011;50564;47.402;9.740;2022-08-14T21:56:29;6.35;;;4.70;;
64235;SDS011;50564;47.402;9.740;2022-08-14T22:01:32;5.50;;;4.18;;
64235;SDS011;50564;47.402;9.740;2022-08-14T22:06:33;6.40;;;4.20;;
64235;SDS011;50564;47.402;9.740;2022-08-14T22:11:35;5.35;;;4.28;;
64235;SDS011;50564;47.402;9.740;2022-08-14T22:16:37;6.05;;;4.40;;
64235;SDS011;50564;47.402;9.740;2022-08-14T22:21:39;7.53;;;4.55;;
64235;SDS011;50564;47.402;9.740;2022-08-14T22:26:42;5.30;;;4.15;;
64235;SDS011;50564;47.402;9.740;2022-08-14T22:31:43;6.25;;;4.22;;
64235;SDS011;50564;47.402;9.740;2022-08-14T22:36:46;6.00;;;4.00;;
64235;SDS011;50564;47.402;9.740;2022-08-14T22:41:47;6.95;;;4.32;;
64235;SDS011;50564;47.402;9.740;2022-08-14T22:46:51;4.78;;;4.05;;
64235;SDS011;50564;47.402;9.740;2022-08-14T22:51:52;5.40;;;4.18;;
64235;SDS011;50564;47.402;9.740;2022-08-14T22:56:54;7.75;;;4.22;;
64235;SDS011;50564;47.402;9.740;2022-08-14T23:02:05;6.75;;;4.35;;
64235;SDS011;50564;47.402;9.740;2022-08-14T23:07:09;8.10;;;4.15;;
64235;SDS011;50564;47.402;9.740;2022-08-14T23:12:11;5.20;;;4.65;;
64235;SDS011;50564;47.402;9.740;2022-08-14T23:17:13;8.18;;;4.40;;
64235;SDS011;50564;47.402;9.740;2022-08-14T23:22:15;5.68;;;4.28;;
64235;SDS011;50564;47.402;9.740;2022-08-14T23:27:16;5.40;;;4.30;;
64235;SDS011;50564;47.402;9.740;2022-08-14T23:32:17;6.15;;;4.50;;
64235;SDS011;50564;47.402;9.740;2022-08-14T23:37:18;5.28;;;3.95;;
64235;SDS011;50564;47.402;9.740;2022-08-14T23:42:19;6.30;;;4.15;;
64235;SDS011;50564;47.402;9.740;2022-08-14T23:47:19;5.30;;;4.18;;
64235;SDS011;50564;47.402;9.740;2022-08-14T23:52:20;5.45;;;4.57;;
64235;SDS011;50564;47.402;9.740;2022-08-14T23:57:21;7.35;;;4.18;;
